createdAt,value
2023-02-24T00:04:53.019Z,12.09
2023-02-24T00:09:55.401Z,11.88
2023-02-24T00:14:58.203Z,11.45
2023-02-24T00:20:00.622Z,11.32
2023-02-24T00:25:04.008Z,11.90
2023-02-24T00:30:07.966Z,12.11
2023-02-24T00:35:10.698Z,12.14
2023-02-24T00:40:13.608Z,12.34
2023-02-24T00:45:16.883Z,12.16
2023-02-24T00:50:19.467Z,12.00
2023-02-24T00:55:23.306Z,12.04
2023-02-24T01:00:25.906Z,12.01
2023-02-24T01:05:29.293Z,12.21
2023-02-24T01:10:34.587Z,12.18
2023-02-24T01:15:37.176Z,12.15
2023-02-24T01:20:39.651Z,12.17
2023-02-24T01:25:47.857Z,12.15
2023-02-24T01:30:50.247Z,12.08
2023-02-24T01:35:55.504Z,12.09
2023-02-24T01:40:59.358Z,12.06
2023-02-24T01:46:01.783Z,12.19
2023-02-24T01:51:04.255Z,12.11
2023-02-24T01:56:07.314Z,12.14
2023-02-24T02:01:10.965Z,12.17
2023-02-24T02:06:17.855Z,12.23
2023-02-24T02:11:20.884Z,12.17
2023-02-24T02:16:53.175Z,12.24
2023-02-24T02:22:06.061Z,11.99
2023-02-24T02:27:21.267Z,11.66
2023-02-24T02:32:35.953Z,11.44
2023-02-24T02:38:03.371Z,11.55
2023-02-24T02:43:29.751Z,11.49
2023-02-24T02:48:54.723Z,11.43
2023-02-24T02:54:21.717Z,11.50
2023-02-24T02:59:28.088Z,11.36
2023-02-24T03:04:30.843Z,10.84
2023-02-24T03:09:39.816Z,11.25
2023-02-24T03:14:59.188Z,11.51
2023-02-24T03:20:29.304Z,11.46
2023-02-24T03:26:01.417Z,11.51
2023-02-24T03:31:27.841Z,11.60
2023-02-24T03:36:32.774Z,11.59
2023-02-24T03:41:42.403Z,11.54
2023-02-24T03:46:45.256Z,10.71
2023-02-24T03:52:32.502Z,10.52
2023-02-24T03:58:35.949Z,10.38
2023-02-24T04:04:16.378Z,10.41
2023-02-24T04:10:06.445Z,10.90
2023-02-24T04:15:52.777Z,11.39
2023-02-24T04:20:59.826Z,11.63
2023-02-24T04:26:03.450Z,11.52
2023-02-24T04:31:11.471Z,11.80
2023-02-24T04:36:18.847Z,11.88
2023-02-24T04:41:23.260Z,11.88
2023-02-24T04:46:26.266Z,11.94
2023-02-24T04:51:31.889Z,12.01
2023-02-24T04:56:35.657Z,12.06
2023-02-24T05:01:42.502Z,11.95
2023-02-24T05:06:45.986Z,11.96
2023-02-24T05:11:50.472Z,11.57
2023-02-24T05:16:53.057Z,11.78
2023-02-24T05:21:57.880Z,11.93
2023-02-24T05:27:01.383Z,11.89
2023-02-24T05:32:05.778Z,11.54
2023-02-24T05:37:10.913Z,11.35
2023-02-24T05:42:13.490Z,11.09
2023-02-24T05:47:19.823Z,11.05
2023-02-24T05:52:22.714Z,11.13
2023-02-24T05:57:27.544Z,11.45
2023-02-24T06:02:37.412Z,11.63
2023-02-24T06:07:40.584Z,11.86
2023-02-24T06:12:43.730Z,11.91
2023-02-24T06:17:46.150Z,11.90
2023-02-24T06:22:48.775Z,11.98
2023-02-24T06:27:55.762Z,11.97
2023-02-24T06:32:58.312Z,12.01
2023-02-24T06:38:00.803Z,11.99
2023-02-24T06:43:03.356Z,11.83
2023-02-24T06:48:07.918Z,11.66
2023-02-24T06:53:17.032Z,11.85
2023-02-24T06:58:20.903Z,12.04
2023-02-24T07:03:39.236Z,12.07
2023-02-24T07:08:44.277Z,11.93
2023-02-24T07:13:48.594Z,12.04
2023-02-24T07:18:58.105Z,12.04
2023-02-24T07:24:04.101Z,11.96
2023-02-24T07:29:06.669Z,12.02
2023-02-24T07:34:09.453Z,12.12
2023-02-24T07:39:12.146Z,12.18
2023-02-24T07:44:15.544Z,12.17
2023-02-24T07:49:21.233Z,12.13
2023-02-24T07:54:25.444Z,12.02
2023-02-24T07:59:33.958Z,12.15
2023-02-24T08:04:39.842Z,12.19
2023-02-24T08:09:45.762Z,12.40
2023-02-24T08:14:53.386Z,12.33
2023-02-24T08:20:14.743Z,11.85
2023-02-24T08:25:19.335Z,11.36
2023-02-24T08:30:25.799Z,11.27
2023-02-24T08:35:35.927Z,11.99
2023-02-24T08:40:51.851Z,13.35
2023-02-24T08:46:01.107Z,13.08
2023-02-24T08:51:28.674Z,12.82
2023-02-24T08:56:35.175Z,12.20
2023-02-24T09:02:03.663Z,11.71
2023-02-24T09:07:15.503Z,11.99
2023-02-24T09:12:25.096Z,12.20
2023-02-24T09:17:45.161Z,12.17
2023-02-24T09:23:06.191Z,12.24
2023-02-24T09:28:25.140Z,12.62
2023-02-24T09:33:39.344Z,12.58
2023-02-24T09:39:01.416Z,12.38
2023-02-24T09:44:19.908Z,12.71
2023-02-24T09:49:46.725Z,13.04
2023-02-24T09:55:11.335Z,13.15
2023-02-24T10:00:33.576Z,13.32
2023-02-24T10:05:59.070Z,13.49
2023-02-24T10:11:09.157Z,13.86
2023-02-24T10:16:23.989Z,13.87
2023-02-24T10:21:49.673Z,13.68
2023-02-24T10:27:16.883Z,13.56
2023-02-24T10:32:41.520Z,13.27
2023-02-24T10:37:44.569Z,13.42
2023-02-24T10:42:48.864Z,13.48
2023-02-24T10:47:59.916Z,13.44
2023-02-24T10:53:26.526Z,13.48
2023-02-24T10:58:56.876Z,13.45
2023-02-24T11:04:22.808Z,13.53
2023-02-24T11:09:29.501Z,13.34
2023-02-24T11:15:09.905Z,13.25
2023-02-24T11:20:51.262Z,13.37
2023-02-24T11:26:00.844Z,13.33
2023-02-24T11:31:37.108Z,13.38
2023-02-24T11:37:10.641Z,13.38
2023-02-24T11:42:22.548Z,13.43
2023-02-24T11:47:41.483Z,13.39
2023-02-24T11:52:49.551Z,13.25
2023-02-24T11:57:56.708Z,12.99
2023-02-24T12:03:58.102Z,12.63
2023-02-24T12:09:14.227Z,12.90
2023-02-24T12:14:47.806Z,13.60
2023-02-24T12:20:03.957Z,14.32
2023-02-24T12:25:11.931Z,14.37
2023-02-24T12:30:48.779Z,13.91
2023-02-24T12:37:10.336Z,13.70
2023-02-24T12:42:31.492Z,14.42
2023-02-24T12:47:43.050Z,14.66
2023-02-24T12:53:20.598Z,14.84
2023-02-24T12:58:32.397Z,14.91
2023-02-24T13:04:11.706Z,14.41
2023-02-24T13:09:46.399Z,14.48
2023-02-24T13:14:50.365Z,14.63
2023-02-24T13:19:56.131Z,14.34
2023-02-24T13:25:21.051Z,14.23
2023-02-24T13:30:39.501Z,14.13
2023-02-24T13:35:41.930Z,14.12
2023-02-24T13:40:44.116Z,14.01
2023-02-24T13:45:58.236Z,13.97
2023-02-24T13:51:52.598Z,14.14
2023-02-24T13:57:07.210Z,14.12
2023-02-24T14:02:21.102Z,14.09
2023-02-24T14:07:35.949Z,13.93
2023-02-24T14:12:42.482Z,13.84
2023-02-24T14:17:53.983Z,13.69
2023-02-24T14:22:58.973Z,13.58
2023-02-24T14:28:01.826Z,13.62
2023-02-24T14:33:07.847Z,13.67
2023-02-24T14:38:39.838Z,13.38
2023-02-24T14:43:43.415Z,13.39
2023-02-24T14:48:51.792Z,13.56
2023-02-24T14:53:59.829Z,13.55
2023-02-24T14:59:35.104Z,13.38
2023-02-24T15:04:43.877Z,13.33
2023-02-24T15:09:48.484Z,13.39
2023-02-24T15:15:00.808Z,13.24
2023-02-24T15:20:05.458Z,13.29
2023-02-24T15:25:19.239Z,13.49
2023-02-24T15:30:38.424Z,13.45
2023-02-24T15:35:50.927Z,13.28
2023-02-24T15:40:57.699Z,13.16
2023-02-24T15:46:00.445Z,13.36
2023-02-24T15:51:07.006Z,13.20
2023-02-24T15:56:09.255Z,13.12
2023-02-24T16:01:13.554Z,13.17
2023-02-24T16:06:21.402Z,12.94
2023-02-24T16:11:40.668Z,12.27
2023-02-24T16:16:43.899Z,12.06
2023-02-24T16:21:46.524Z,12.02
2023-02-24T16:26:51.635Z,11.63
2023-02-24T16:31:54.113Z,11.59
2023-02-24T16:36:56.228Z,11.54
2023-02-24T16:41:59.498Z,11.33
2023-02-24T16:47:01.843Z,11.35
2023-02-24T16:52:04.123Z,11.25
2023-02-24T16:57:06.612Z,11.13
2023-02-24T17:02:21.918Z,11.00
2023-02-24T17:07:24.309Z,11.07
2023-02-24T17:12:26.436Z,11.23
2023-02-24T17:17:28.560Z,11.07
2023-02-24T17:22:31.204Z,10.85
2023-02-24T17:27:33.849Z,10.56
2023-02-24T17:32:36.318Z,10.44
2023-02-24T17:37:38.778Z,10.38
2023-02-24T17:42:41.446Z,10.36
2023-02-24T17:47:44.349Z,10.35
2023-02-24T17:52:46.796Z,10.22
2023-02-24T17:57:49.243Z,10.36
2023-02-24T18:02:53.644Z,10.41
2023-02-24T18:07:58.685Z,10.22
2023-02-24T18:13:01.374Z,10.08
2023-02-24T18:18:04.047Z,10.03
2023-02-24T18:23:06.675Z,10.17
2023-02-24T18:28:09.188Z,10.24
2023-02-24T18:33:11.677Z,10.42
2023-02-24T18:38:14.500Z,10.43
2023-02-24T18:43:17.031Z,10.31
2023-02-24T18:48:19.678Z,10.27
2023-02-24T18:53:23.797Z,10.16
2023-02-24T18:58:26.297Z,10.09
2023-02-24T19:03:28.698Z,10.12
2023-02-24T19:08:31.617Z,9.98
2023-02-24T19:13:34.117Z,10.42
2023-02-24T19:18:37.031Z,10.44
2023-02-24T19:23:39.729Z,10.21
2023-02-24T19:28:42.393Z,10.55
2023-02-24T19:33:45.122Z,10.16
2023-02-24T19:38:47.682Z,10.11
2023-02-24T19:43:50.178Z,10.31
2023-02-24T19:48:52.575Z,10.41
2023-02-24T19:53:57.229Z,10.50
2023-02-24T19:59:01.366Z,10.53
2023-02-24T20:04:05.496Z,10.77
2023-02-24T20:09:10.574Z,10.63
2023-02-24T20:14:15.280Z,10.26
2023-02-24T20:19:18.168Z,9.93
2023-02-24T20:24:20.629Z,10.13
2023-02-24T20:29:23.156Z,10.22
2023-02-24T20:34:26.182Z,10.06
2023-02-24T20:39:28.744Z,10.22
2023-02-24T20:44:31.194Z,10.31
2023-02-24T20:49:33.890Z,10.37
2023-02-24T20:54:36.337Z,10.44
2023-02-24T20:59:43.974Z,10.62
2023-02-24T21:04:50.940Z,10.69
2023-02-24T21:09:53.458Z,10.66
2023-02-24T21:14:55.954Z,10.66
2023-02-24T21:19:58.549Z,10.68
2023-02-24T21:25:01.113Z,10.57
2023-02-24T21:30:05.332Z,10.60
2023-02-24T21:35:08.378Z,10.36
2023-02-24T21:40:11.758Z,10.40
2023-02-24T21:45:15.060Z,10.50
2023-02-24T21:50:18.205Z,10.34
2023-02-24T21:55:20.670Z,10.34
2023-02-24T22:00:24.177Z,10.42
2023-02-24T22:05:27.094Z,10.17
2023-02-24T22:10:29.575Z,9.83
2023-02-24T22:15:32.845Z,10.00
2023-02-24T22:20:35.214Z,9.80
2023-02-24T22:25:37.715Z,9.54
2023-02-24T22:30:40.155Z,9.45
2023-02-24T22:35:42.941Z,9.22
2023-02-24T22:40:45.720Z,8.56
2023-02-24T22:45:57.198Z,8.09
2023-02-24T22:51:01.650Z,7.87
2023-02-24T22:56:04.650Z,7.69
2023-02-24T23:01:15.804Z,7.44
2023-02-24T23:06:28.352Z,7.35
2023-02-24T23:11:34.927Z,7.24
2023-02-24T23:16:38.884Z,7.31
2023-02-24T23:21:45.378Z,7.31
2023-02-24T23:26:54.098Z,7.34
2023-02-24T23:31:57.386Z,7.40
2023-02-24T23:36:59.559Z,7.50
2023-02-24T23:42:01.742Z,7.39
2023-02-24T23:47:05.103Z,7.38
2023-02-24T23:52:08.448Z,7.58
2023-02-24T23:57:10.457Z,7.68
